Time;durP1;ratioP1;P1;durP2;ratioP2;P2;SDS_P1;SDS_P2;PMS_P1;PMS_P2;Temp;Humidity;BMP_temperature;BMP_pressure;BME280_temperature;BME280_humidity;BME280_pressure;Samples;Min_cycle;Max_cycle;Signal;HPM_P1;HPM_P2
2023/10/31 00:02:07;;;;;;;250.02;165.23;;;27.30;99.90;;;;;;5054893;28;20017;-64
2023/10/31 00:04:34;;;;;;;273.30;172.90;;;27.40;99.90;;;;;;5055821;28;20474;-62
2023/10/31 00:07:01;;;;;;;289.13;186.05;;;27.30;99.90;;;;;;5055746;28;20032;-63
2023/10/31 00:09:27;;;;;;;284.92;182.95;;;27.30;99.90;;;;;;5055340;28;20028;-65
2023/10/31 00:11:54;;;;;;;303.63;198.93;;;27.30;99.90;;;;;;5054838;28;20059;-62
2023/10/31 00:14:21;;;;;;;323.65;207.35;;;27.30;99.90;;;;;;5055102;28;20112;-62
2023/10/31 00:16:48;;;;;;;319.55;201.07;;;27.30;99.90;;;;;;5055077;28;20028;-63
2023/10/31 00:19:15;;;;;;;354.33;232.63;;;27.40;99.90;;;;;;5053478;28;20024;-63
2023/10/31 00:21:42;;;;;;;371.00;245.10;;;27.40;99.90;;;;;;5054733;28;20047;-63
2023/10/31 00:24:09;;;;;;;386.75;255.82;;;27.40;99.90;;;;;;5054755;28;20494;-63
2023/10/31 00:26:35;;;;;;;417.75;273.75;;;27.40;99.90;;;;;;5054479;28;20056;-63
2023/10/31 00:29:02;;;;;;;465.50;306.08;;;27.50;99.90;;;;;;5054979;28;20096;-64
2023/10/31 00:31:29;;;;;;;457.15;310.23;;;27.50;99.90;;;;;;5054831;28;20482;-64
2023/10/31 00:33:57;;;;;;;456.42;313.05;;;27.50;99.90;;;;;;5054756;28;20013;-63
2023/10/31 00:36:24;;;;;;;456.42;298.92;;;27.50;99.90;;;;;;5055117;28;20111;-64
2023/10/31 00:38:51;;;;;;;449.30;302.08;;;27.60;99.90;;;;;;5054955;28;20020;-64
2023/10/31 00:41:17;;;;;;;442.33;299.27;;;27.70;99.90;;;;;;5054528;28;20024;-65
2023/10/31 00:43:44;;;;;;;468.50;325.55;;;27.80;99.90;;;;;;5054733;28;20086;-65
2023/10/31 00:46:11;;;;;;;448.02;296.23;;;27.80;99.90;;;;;;5051842;28;20041;-66
2023/10/31 00:48:37;;;;;;;466.15;320.52;;;27.90;99.90;;;;;;5054979;28;20107;-64
2023/10/31 00:51:05;;;;;;;416.60;280.55;;;27.90;99.90;;;;;;5055070;28;20529;-65
2023/10/31 00:53:32;;;;;;;417.88;269.10;;;27.90;99.90;;;;;;5055214;28;20064;-64
2023/10/31 00:55:59;;;;;;;416.25;275.30;;;27.90;99.90;;;;;;5055291;28;20075;-63
2023/10/31 00:58:25;;;;;;;415.58;269.30;;;28.00;99.90;;;;;;5054915;28;20028;-64
2023/10/31 01:00:52;;;;;;;381.10;241.55;;;28.10;99.90;;;;;;5054390;28;20021;-66
2023/10/31 01:03:19;;;;;;;387.25;246.15;;;28.10;99.90;;;;;;5054220;28;20029;-67
2023/10/31 01:05:46;;;;;;;451.55;302.55;;;28.10;99.90;;;;;;5053946;28;20450;-66
2023/10/31 01:08:13;;;;;;;400.67;255.63;;;28.20;99.90;;;;;;5054297;28;20064;-65
2023/10/31 01:10:39;;;;;;;388.23;244.10;;;28.20;99.90;;;;;;5054223;28;20088;-66
2023/10/31 01:13:06;;;;;;;385.85;251.13;;;28.20;99.90;;;;;;5051669;28;20112;-65
2023/10/31 01:15:33;;;;;;;381.55;243.35;;;28.30;99.90;;;;;;5054628;28;20021;-65
2023/10/31 01:18:00;;;;;;;417.75;265.73;;;28.40;99.90;;;;;;5054529;28;20021;-65
2023/10/31 01:20:27;;;;;;;490.65;313.48;;;28.40;99.90;;;;;;5054666;28;20021;-64
2023/10/31 01:22:54;;;;;;;532.72;348.23;;;28.40;99.90;;;;;;5054335;28;20032;-64
2023/10/31 01:25:21;;;;;;;556.05;360.33;;;28.40;99.90;;;;;;5054288;28;20112;-65
2023/10/31 01:27:47;;;;;;;534.35;355.42;;;28.40;99.90;;;;;;5048374;28;20029;-63
2023/10/31 01:30:14;;;;;;;577.88;385.65;;;28.40;99.90;;;;;;5034217;28;20030;-64
2023/10/31 01:32:41;;;;;;;589.90;389.65;;;28.40;99.90;;;;;;5034345;28;20029;-64
2023/10/31 01:35:08;;;;;;;573.53;382.88;;;28.50;99.90;;;;;;5034646;28;20017;-64
2023/10/31 01:37:35;;;;;;;483.10;323.98;;;28.50;99.90;;;;;;5034242;28;20482;-65
2023/10/31 01:40:03;;;;;;;495.08;325.98;;;28.60;99.90;;;;;;5034279;28;20018;-64
2023/10/31 01:42:30;;;;;;;528.65;355.95;;;28.60;99.90;;;;;;5045366;28;20108;-63
2023/10/31 01:44:57;;;;;;;573.60;383.05;;;28.70;99.90;;;;;;5053982;28;20025;-63
2023/10/31 01:47:24;;;;;;;544.05;366.00;;;28.70;99.90;;;;;;5054157;28;20056;-63
2023/10/31 01:49:52;;;;;;;473.42;309.60;;;28.70;99.90;;;;;;5036001;28;20429;-65
2023/10/31 01:52:19;;;;;;;488.27;313.35;;;28.70;99.90;;;;;;5053817;28;20464;-64
2023/10/31 01:54:45;;;;;;;471.48;299.85;;;28.80;99.90;;;;;;5053719;28;20390;-65
2023/10/31 01:57:13;;;;;;;459.80;300.55;;;28.80;99.90;;;;;;5053597;28;20029;-65
2023/10/31 01:59:40;;;;;;;520.50;341.65;;;28.90;99.90;;;;;;5053855;28;20377;-65
2023/10/31 02:02:07;;;;;;;544.08;369.02;;;29.00;99.90;;;;;;5053518;28;20488;-65
2023/10/31 02:04:34;;;;;;;570.53;379.98;;;29.00;99.90;;;;;;5053513;28;20382;-65
2023/10/31 02:07:01;;;;;;;570.42;384.42;;;29.10;99.90;;;;;;5053322;28;20029;-64
2023/10/31 02:09:29;;;;;;;552.47;374.70;;;29.20;99.90;;;;;;5053287;28;20033;-64
2023/10/31 02:11:56;;;;;;;527.90;351.20;;;29.20;99.90;;;;;;5053510;28;20060;-65
2023/10/31 02:14:24;;;;;;;549.30;366.42;;;29.30;99.90;;;;;;5053516;28;20470;-65
2023/10/31 02:16:51;;;;;;;539.97;364.52;;;29.30;99.90;;;;;;5053353;28;20036;-64
2023/10/31 02:19:21;;;;;;;539.38;371.58;;;29.40;99.90;;;;;;5053194;28;20359;-63
2023/10/31 02:21:47;;;;;;;545.28;369.23;;;29.50;99.90;;;;;;5053224;28;20025;-64
2023/10/31 02:24:14;;;;;;;519.60;349.05;;;29.50;99.90;;;;;;5053506;28;20017;-63
2023/10/31 02:26:41;;;;;;;532.72;359.90;;;29.60;99.90;;;;;;5053562;28;20104;-65
2023/10/31 02:29:08;;;;;;;527.40;357.80;;;29.70;99.90;;;;;;5053221;28;20025;-66
2023/10/31 02:31:34;;;;;;;528.75;364.48;;;29.70;99.90;;;;;;5053235;28;20025;-65
2023/10/31 02:34:01;;;;;;;513.22;348.15;;;29.70;99.90;;;;;;5053173;28;20420;-67
2023/10/31 02:36:28;;;;;;;487.30;330.15;;;29.70;99.90;;;;;;5053089;28;20401;-66
2023/10/31 02:38:55;;;;;;;488.42;338.40;;;29.70;99.90;;;;;;5053110;28;20016;-67
2023/10/31 02:41:21;;;;;;;502.02;344.70;;;29.80;99.90;;;;;;5052889;28;20493;-66
2023/10/31 02:43:48;;;;;;;491.23;330.38;;;29.80;99.90;;;;;;5053175;28;20029;-67
2023/10/31 02:46:16;;;;;;;493.95;328.13;;;29.80;99.90;;;;;;5052751;28;20120;-68
2023/10/31 02:48:42;;;;;;;520.30;355.55;;;29.80;99.90;;;;;;5052728;28;20152;-66
2023/10/31 02:51:09;;;;;;;507.27;358.45;;;29.90;99.90;;;;;;5052939;28;20036;-66
2023/10/31 02:53:36;;;;;;;542.20;372.55;;;29.90;99.90;;;;;;5053189;28;20104;-67
2023/10/31 02:56:03;;;;;;;542.22;368.58;;;29.90;99.90;;;;;;5052979;28;20021;-67
2023/10/31 02:58:30;;;;;;;551.03;389.65;;;30.00;99.90;;;;;;5053281;28;20025;-66
2023/10/31 03:00:57;;;;;;;610.60;426.95;;;30.10;99.90;;;;;;5052943;28;20032;-67
2023/10/31 03:03:23;;;;;;;651.78;461.50;;;30.30;99.90;;;;;;5052776;28;20053;-65
2023/10/31 03:05:50;;;;;;;665.50;470.30;;;30.30;99.90;;;;;;5053187;28;20036;-66
2023/10/31 03:08:20;;;;;;;735.08;514.28;;;30.40;99.90;;;;;;5052927;28;20052;-67
2023/10/31 03:10:50;;;;;;;757.35;533.78;;;30.40;99.90;;;;;;5052549;28;20051;-67
2023/10/31 03:13:18;;;;;;;783.13;544.33;;;30.50;99.90;;;;;;5052737;28;20037;-67
2023/10/31 03:15:47;;;;;;;743.38;530.85;;;30.50;99.90;;;;;;5055706;28;20048;-67
2023/10/31 03:18:14;;;;;;;759.08;532.28;;;30.50;99.90;;;;;;5056321;28;20029;-67
2023/10/31 03:20:44;;;;;;;731.65;526.70;;;30.60;99.90;;;;;;5056486;28;20371;-67
2023/10/31 03:23:11;;;;;;;770.45;538.20;;;30.60;99.90;;;;;;5056371;28;20036;-67
2023/10/31 03:25:38;;;;;;;767.30;541.50;;;30.60;99.90;;;;;;5056349;28;20086;-66
2023/10/31 03:28:07;;;;;;;761.30;529.08;;;30.60;99.90;;;;;;5056630;28;20385;-66
2023/10/31 03:30:34;;;;;;;771.40;537.72;;;30.70;99.90;;;;;;5056506;28;20049;-67
2023/10/31 03:33:01;;;;;;;753.67;525.67;;;30.70;99.90;;;;;;5055553;28;20017;-65
2023/10/31 03:35:27;;;;;;;710.80;497.90;;;30.80;99.90;;;;;;5055040;28;20025;-65
2023/10/31 03:37:54;;;;;;;725.47;507.55;;;31.00;99.90;;;;;;5055178;28;20028;-64
2023/10/31 03:40:21;;;;;;;743.10;516.55;;;31.00;99.90;;;;;;5054926;28;20390;-65
2023/10/31 03:42:47;;;;;;;742.85;509.33;;;31.10;99.90;;;;;;5055135;28;20036;-66
2023/10/31 03:45:14;;;;;;;754.92;520.55;;;31.20;99.90;;;;;;5054813;28;20041;-65
2023/10/31 03:47:41;;;;;;;748.78;526.25;;;31.30;99.90;;;;;;5054842;28;20381;-67
2023/10/31 03:50:09;;;;;;;805.83;557.67;;;31.30;99.90;;;;;;5055343;28;20024;-67
2023/10/31 03:52:36;;;;;;;852.78;583.88;;;31.30;99.90;;;;;;5056255;28;20029;-67
2023/10/31 03:55:03;;;;;;;869.28;598.85;;;31.40;99.90;;;;;;5055796;28;20029;-66
2023/10/31 03:57:30;;;;;;;847.33;587.42;;;31.40;99.90;;;;;;5056130;28;20024;-67
2023/10/31 03:59:57;;;;;;;822.92;577.65;;;31.40;99.90;;;;;;5055907;28;20013;-67
2023/10/31 04:02:23;;;;;;;846.53;582.65;;;31.40;99.90;;;;;;5055650;28;20048;-67
2023/10/31 04:04:50;;;;;;;833.20;579.65;;;31.40;99.90;;;;;;5055662;28;20029;-67
2023/10/31 04:07:17;;;;;;;814.70;582.00;;;31.40;99.90;;;;;;5055860;28;20131;-67
2023/10/31 04:09:43;;;;;;;877.75;609.75;;;31.40;99.90;;;;;;5055250;28;20025;-66
2023/10/31 04:12:10;;;;;;;910.35;629.58;;;31.40;99.90;;;;;;5055782;28;20025;-67
2023/10/31 04:14:39;;;;;;;894.58;632.70;;;31.40;99.90;;;;;;5055462;28;20435;-67
2023/10/31 04:17:06;;;;;;;920.97;657.10;;;31.40;99.90;;;;;;5055366;28;20385;-66
2023/10/31 04:19:32;;;;;;;931.60;665.80;;;31.40;99.90;;;;;;5055423;28;20017;-67
2023/10/31 04:21:59;;;;;;;978.28;694.92;;;31.40;99.90;;;;;;5055351;28;20025;-66
2023/10/31 04:24:26;;;;;;;1036.70;747.15;;;31.40;99.90;;;;;;5055283;28;20029;-67
2023/10/31 04:26:53;;;;;;;959.42;659.28;;;31.30;99.90;;;;;;5054849;28;20475;-67
2023/10/31 04:29:20;;;;;;;987.38;705.88;;;31.30;99.90;;;;;;5054375;28;20050;-67
2023/10/31 04:31:46;;;;;;;1022.53;733.97;;;31.20;99.90;;;;;;5046033;28;20029;-63
2023/10/31 04:34:13;;;;;;;1103.85;777.63;;;31.20;99.90;;;;;;5055191;28;20021;-65
2023/10/31 04:36:40;;;;;;;1075.75;767.10;;;31.20;99.90;;;;;;5055196;28;20025;-65
2023/10/31 04:39:07;;;;;;;1004.85;737.30;;;31.20;99.90;;;;;;5055152;28;20390;-65
2023/10/31 04:41:34;;;;;;;932.88;688.67;;;31.20;99.90;;;;;;5045817;28;20033;-65
2023/10/31 04:44:01;;;;;;;870.45;629.50;;;31.20;99.90;;;;;;5016908;28;20194;-65
2023/10/31 04:46:28;;;;;;;862.03;607.55;;;31.30;99.90;;;;;;5034204;28;20104;-65
2023/10/31 04:48:55;;;;;;;807.63;566.63;;;31.30;99.90;;;;;;5034175;28;20350;-64
2023/10/31 04:51:22;;;;;;;684.42;499.13;;;31.40;99.90;;;;;;5034421;28;20101;-65
2023/10/31 04:53:48;;;;;;;524.08;371.20;;;31.40;99.90;;;;;;5034004;28;20052;-66
2023/10/31 04:56:16;;;;;;;421.35;268.02;;;31.40;99.90;;;;;;5034043;28;20049;-66
2023/10/31 04:58:43;;;;;;;453.52;288.58;;;31.60;99.90;;;;;;5033859;28;20026;-67
2023/10/31 05:01:12;;;;;;;444.33;299.27;;;31.60;99.90;;;;;;5033977;28;20437;-66
2023/10/31 05:03:39;;;;;;;469.55;337.73;;;31.60;99.90;;;;;;5033727;28;20030;-67
2023/10/31 05:06:06;;;;;;;382.60;260.77;;;31.60;99.90;;;;;;5035887;28;20064;-67
2023/10/31 05:08:33;;;;;;;361.90;250.52;;;31.70;99.90;;;;;;5053517;28;20446;-66
2023/10/31 05:11:00;;;;;;;310.10;235.23;;;31.80;99.90;;;;;;5053326;28;20052;-66
2023/10/31 05:13:26;;;;;;;230.18;176.70;;;31.90;99.90;;;;;;5053216;28;20373;-66
2023/10/31 05:15:53;;;;;;;194.50;163.85;;;32.00;99.90;;;;;;5053113;28;20013;-67
2023/10/31 05:18:20;;;;;;;184.25;162.90;;;32.00;99.90;;;;;;5052947;28;20052;-68
2023/10/31 05:20:47;;;;;;;173.65;155.20;;;32.10;99.90;;;;;;5050736;28;20021;-65
2023/10/31 05:23:14;;;;;;;129.90;115.47;;;32.10;99.90;;;;;;5053586;28;20025;-67
2023/10/31 05:25:41;;;;;;;161.02;143.82;;;32.10;99.90;;;;;;5052835;28;20410;-66
2023/10/31 05:28:07;;;;;;;187.45;167.32;;;32.10;99.90;;;;;;5053410;28;20036;-66
2023/10/31 05:30:34;;;;;;;162.55;142.15;;;32.00;99.90;;;;;;5053190;28;20028;-65
2023/10/31 05:33:01;;;;;;;190.02;170.35;;;32.00;99.90;;;;;;5053680;28;20398;-70
2023/10/31 05:35:27;;;;;;;238.43;213.55;;;32.20;99.90;;;;;;5053602;28;20025;-70
2023/10/31 05:37:54;;;;;;;210.00;189.45;;;32.30;99.90;;;;;;5053100;28;20367;-69
2023/10/31 05:40:24;;;;;;;218.25;197.38;;;32.40;99.90;;;;;;5046951;28;20041;-68
2023/10/31 05:42:51;;;;;;;210.45;189.77;;;32.60;99.90;;;;;;5033695;28;20478;-65
2023/10/31 05:45:18;;;;;;;678.28;610.25;;;32.70;99.90;;;;;;5033445;28;20124;-68
2023/10/31 05:47:44;;;;;;;419.55;375.65;;;32.90;99.90;;;;;;5033617;28;20030;-67
2023/10/31 05:50:11;;;;;;;380.63;341.33;;;32.90;99.90;;;;;;5033688;28;20075;-66
2023/10/31 05:52:38;;;;;;;390.10;349.80;;;33.00;99.90;;;;;;5033561;28;20026;-65
2023/10/31 05:55:05;;;;;;;620.10;556.88;;;33.10;99.90;;;;;;5033453;28;20025;-66
2023/10/31 05:57:32;;;;;;;385.98;345.30;;;33.10;99.90;;;;;;5033505;28;20104;-65
2023/10/31 05:59:59;;;;;;;396.52;354.70;;;33.20;99.90;;;;;;5033151;28;20040;-66
2023/10/31 06:02:25;;;;;;;453.77;404.65;;;33.30;99.90;;;;;;5032730;28;20037;-65
2023/10/31 06:04:52;;;;;;;454.52;406.40;;;33.40;99.90;;;;;;5048484;28;20044;-64
2023/10/31 06:07:19;;;;;;;428.70;383.52;;;33.40;99.90;;;;;;5051730;28;20068;-64
2023/10/31 06:09:45;;;;;;;561.55;503.83;;;33.40;99.90;;;;;;5051587;28;20029;-62
2023/10/31 06:12:12;;;;;;;442.83;396.00;;;33.40;99.90;;;;;;5052036;28;20025;-66
2023/10/31 06:14:39;;;;;;;350.23;315.63;;;33.40;99.90;;;;;;5052001;28;20131;-64
2023/10/31 06:17:05;;;;;;;342.63;308.60;;;33.50;99.90;;;;;;5051793;28;20029;-64
2023/10/31 06:19:36;;;;;;;336.58;302.63;;;33.60;99.90;;;;;;5051975;28;20056;-68
2023/10/31 06:22:03;;;;;;;336.92;303.08;;;33.60;99.90;;;;;;5050973;28;20275;-69
2023/10/31 06:24:30;;;;;;;362.33;325.60;;;33.70;99.90;;;;;;5052070;28;20547;-66
2023/10/31 06:26:56;;;;;;;320.23;289.40;;;33.70;99.90;;;;;;5051898;28;20382;-68
2023/10/31 06:29:23;;;;;;;363.40;327.13;;;33.80;99.90;;;;;;5050797;28;20496;-65
2023/10/31 06:31:50;;;;;;;416.15;372.40;;;33.80;99.90;;;;;;5050159;28;20108;-65
2023/10/31 06:34:16;;;;;;;498.52;446.95;;;33.80;99.90;;;;;;5050967;28;20469;-66
2023/10/31 06:36:43;;;;;;;389.25;349.67;;;33.90;99.90;;;;;;5051130;28;20100;-68
2023/10/31 06:39:10;;;;;;;461.88;413.60;;;33.90;99.90;;;;;;5051067;28;20033;-64
2023/10/31 06:41:37;;;;;;;422.15;378.05;;;34.10;99.90;;;;;;5050866;28;20021;-67
2023/10/31 06:44:04;;;;;;;454.33;407.23;;;34.10;99.90;;;;;;5048151;28;20017;-67
2023/10/31 06:46:31;;;;;;;516.03;462.95;;;34.20;99.90;;;;;;5050453;28;20067;-66
2023/10/31 06:48:58;;;;;;;403.63;361.85;;;34.20;99.90;;;;;;5052809;28;20029;-63
2023/10/31 06:51:25;;;;;;;621.15;558.45;;;34.20;99.90;;;;;;5055328;28;20116;-63
2023/10/31 06:53:52;;;;;;;494.88;443.23;;;34.20;99.90;;;;;;5055134;28;20385;-61
2023/10/31 06:56:18;;;;;;;423.42;379.95;;;34.30;99.90;;;;;;5055267;28;20394;-64
2023/10/31 06:58:45;;;;;;;447.00;400.55;;;34.40;99.90;;;;;;5054705;28;20420;-62
2023/10/31 07:01:14;;;;;;;434.80;389.90;;;34.50;99.90;;;;;;5054516;28;20028;-62
2023/10/31 07:03:41;;;;;;;378.60;340.45;;;34.50;99.90;;;;;;5054430;28;20033;-64
2023/10/31 07:06:08;;;;;;;364.88;328.13;;;34.60;99.90;;;;;;5051803;28;20028;-63
2023/10/31 07:08:35;;;;;;;305.58;275.85;;;34.60;99.20;;;;;;5054336;28;20025;-61
2023/10/31 07:11:01;;;;;;;279.02;252.93;;;34.40;99.30;;;;;;5054888;28;20375;-65
2023/10/31 07:13:28;;;;;;;316.58;286.05;;;34.40;99.80;;;;;;5054868;28;20017;-65
2023/10/31 07:15:55;;;;;;;319.90;288.73;;;34.40;99.90;;;;;;5054623;28;20025;-61
2023/10/31 07:18:22;;;;;;;256.05;231.77;;;34.40;99.90;;;;;;5055204;28;20100;-61
2023/10/31 07:20:48;;;;;;;242.07;219.50;;;34.40;99.90;;;;;;5054608;28;20457;-63
2023/10/31 07:23:15;;;;;;;249.57;226.13;;;34.50;99.90;;;;;;5054457;28;20219;-63
2023/10/31 07:25:43;;;;;;;234.02;212.20;;;34.50;99.60;;;;;;5053307;28;20108;-63
2023/10/31 07:28:10;;;;;;;228.02;206.93;;;34.60;99.90;;;;;;5054816;28;20072;-64
2023/10/31 07:30:37;;;;;;;222.88;202.05;;;34.60;99.00;;;;;;5054642;28;20025;-63
2023/10/31 07:33:03;;;;;;;231.48;209.93;;;34.50;99.70;;;;;;5054371;28;20047;-63
2023/10/31 07:35:30;;;;;;;227.68;205.98;;;34.60;99.80;;;;;;5054480;28;20028;-65
2023/10/31 07:37:57;;;;;;;210.57;190.77;;;34.70;99.90;;;;;;5054535;28;20021;-64
2023/10/31 07:40:23;;;;;;;241.18;218.68;;;34.70;99.90;;;;;;5054332;28;20017;-62
2023/10/31 07:42:50;;;;;;;226.90;204.98;;;34.80;99.80;;;;;;5054469;28;20025;-64
2023/10/31 07:45:17;;;;;;;361.23;306.38;;;34.90;99.70;;;;;;5054367;28;20017;-63
2023/10/31 07:47:43;;;;;;;333.38;282.02;;;34.70;99.90;;;;;;5054164;28;20567;-63
2023/10/31 07:50:11;;;;;;;351.63;297.30;;;34.60;99.90;;;;;;5051531;28;20037;-64
2023/10/31 07:52:37;;;;;;;352.85;304.75;;;34.30;99.90;;;;;;5043484;28;20051;-63
2023/10/31 07:55:04;;;;;;;348.90;297.35;;;34.10;99.90;;;;;;5037472;28;20101;-62
2023/10/31 07:57:31;;;;;;;314.45;269.83;;;33.90;99.90;;;;;;5035306;28;20022;-62
2023/10/31 07:59:58;;;;;;;323.05;283.08;;;33.80;99.90;;;;;;5040008;28;20033;-62
2023/10/31 08:02:24;;;;;;;345.90;297.40;;;33.80;99.90;;;;;;5053995;28;20025;-65
2023/10/31 08:04:51;;;;;;;333.95;292.35;;;33.70;99.90;;;;;;5054143;28;20029;-64
2023/10/31 08:07:18;;;;;;;351.40;293.73;;;33.70;99.90;;;;;;5054693;28;20033;-64
2023/10/31 08:09:45;;;;;;;332.55;289.73;;;33.70;99.90;;;;;;5051166;28;20048;-64
2023/10/31 08:12:11;;;;;;;372.10;311.92;;;33.60;99.90;;;;;;5054378;28;20036;-65
2023/10/31 08:14:38;;;;;;;346.58;283.42;;;33.60;99.90;;;;;;5054718;28;20063;-65
2023/10/31 08:17:05;;;;;;;314.60;271.40;;;33.60;99.90;;;;;;5055039;28;20116;-64
2023/10/31 08:19:31;;;;;;;329.27;277.15;;;33.60;99.90;;;;;;5054700;28;20051;-64
2023/10/31 08:21:58;;;;;;;325.50;283.73;;;33.50;99.90;;;;;;5054978;28;20024;-64
2023/10/31 08:24:25;;;;;;;327.92;292.98;;;33.40;99.90;;;;;;5054782;28;20505;-62
2023/10/31 08:26:52;;;;;;;323.92;290.05;;;33.00;99.90;;;;;;5054902;28;20023;-62
2023/10/31 08:29:18;;;;;;;330.85;296.17;;;32.40;99.90;;;;;;5054856;28;20067;-64
2023/10/31 08:31:45;;;;;;;321.25;288.50;;;32.10;99.90;;;;;;5054150;28;20481;-67
2023/10/31 08:34:12;;;;;;;281.77;253.85;;;31.70;99.90;;;;;;5054330;28;20478;-67
2023/10/31 08:36:38;;;;;;;272.95;245.77;;;31.40;99.90;;;;;;5054340;28;20029;-66
2023/10/31 08:39:05;;;;;;;256.25;231.18;;;31.30;99.90;;;;;;5047618;28;20107;-66
2023/10/31 08:41:32;;;;;;;264.73;238.85;;;31.30;99.90;;;;;;5048608;28;20505;-68
2023/10/31 08:43:59;;;;;;;287.88;258.92;;;31.00;99.90;;;;;;5053774;28;20056;-62
2023/10/31 08:46:26;;;;;;;323.67;291.35;;;30.90;99.90;;;;;;5053085;28;20075;-65
2023/10/31 08:48:53;;;;;;;413.50;369.67;;;30.80;99.90;;;;;;5053231;28;20060;-66
2023/10/31 08:51:20;;;;;;;506.95;453.25;;;30.80;99.90;;;;;;5051861;28;20501;-65
2023/10/31 08:53:47;;;;;;;531.50;475.48;;;31.00;99.90;;;;;;5052703;28;20041;-64
2023/10/31 08:56:14;;;;;;;487.98;436.17;;;31.10;99.90;;;;;;5051954;28;20632;-67
2023/10/31 08:58:41;;;;;;;498.02;445.30;;;31.20;99.90;;;;;;5052545;28;20033;-65
2023/10/31 09:01:08;;;;;;;471.58;421.90;;;31.30;99.90;;;;;;5051850;28;20040;-66
2023/10/31 09:03:34;;;;;;;443.92;396.58;;;31.20;99.90;;;;;;5049697;28;20090;-64
2023/10/31 09:06:02;;;;;;;440.42;393.45;;;31.20;99.90;;;;;;5051694;28;20021;-65
2023/10/31 09:08:28;;;;;;;494.80;442.30;;;31.10;99.90;;;;;;5050220;28;20219;-65
2023/10/31 09:10:55;;;;;;;659.30;590.80;;;31.00;99.90;;;;;;5052464;28;20024;-66
2023/10/31 09:13:22;;;;;;;748.60;617.60;;;31.00;99.90;;;;;;5050877;28;20039;-64
2023/10/31 09:15:49;;;;;;;965.28;671.08;;;30.80;99.90;;;;;;5050815;28;20036;-65
2023/10/31 09:18:16;;;;;;;484.25;421.73;;;30.80;99.90;;;;;;5051333;28;20036;-66
2023/10/31 09:20:43;;;;;;;510.08;456.90;;;30.70;99.90;;;;;;5052841;28;20500;-66
2023/10/31 09:23:10;;;;;;;546.50;489.90;;;30.70;99.90;;;;;;5051149;28;20419;-67
2023/10/31 09:25:36;;;;;;;409.42;366.92;;;30.70;99.90;;;;;;5052642;28;20364;-66
2023/10/31 09:28:03;;;;;;;460.58;412.23;;;30.80;99.90;;;;;;5049510;28;20033;-63
2023/10/31 09:30:30;;;;;;;883.70;795.25;;;30.70;99.90;;;;;;5052194;28;20025;-64
2023/10/31 09:32:57;;;;;;;920.10;828.45;;;30.70;99.90;;;;;;5051254;28;20049;-65
2023/10/31 09:35:24;;;;;;;869.70;783.20;;;30.70;99.90;;;;;;5051398;28;20362;-64
2023/10/31 09:37:51;;;;;;;1232.90;999.90;;;30.70;99.90;;;;;;5048412;28;20086;-64
2023/10/31 09:40:18;;;;;;;1086.25;973.88;;;30.70;99.90;;;;;;5050710;28;20032;-67
2023/10/31 09:42:46;;;;;;;1115.03;999.03;;;30.70;99.90;;;;;;5051802;28;20393;-61
2023/10/31 09:45:13;;;;;;;1014.63;911.35;;;30.60;99.90;;;;;;5052438;28;20029;-62
2023/10/31 09:47:42;;;;;;;1189.20;999.90;;;30.60;99.90;;;;;;5051548;28;20052;-61
2023/10/31 09:50:11;;;;;;;946.15;851.85;;;30.60;99.90;;;;;;5050013;28;20033;-62
2023/10/31 09:52:39;;;;;;;830.80;748.33;;;30.70;99.90;;;;;;5052243;28;20390;-64
2023/10/31 09:55:06;;;;;;;874.10;786.05;;;30.60;99.90;;;;;;5052231;28;20025;-63
2023/10/31 09:57:33;;;;;;;941.42;843.78;;;30.60;99.90;;;;;;5052544;28;20031;-63
2023/10/31 10:00:00;;;;;;;871.13;782.50;;;30.60;99.90;;;;;;5052548;28;20470;-64
2023/10/31 10:02:27;;;;;;;803.35;720.25;;;30.50;99.90;;;;;;5052860;28;20028;-60
2023/10/31 10:04:54;;;;;;;756.97;680.83;;;30.40;99.90;;;;;;5052383;28;20421;-64
2023/10/31 10:07:21;;;;;;;722.55;648.00;;;30.40;99.90;;;;;;5052749;28;20067;-65
2023/10/31 10:09:47;;;;;;;796.78;716.33;;;30.50;99.90;;;;;;5051959;28;20025;-66
2023/10/31 10:12:17;;;;;;;760.45;680.63;;;30.50;99.90;;;;;;5048091;28;20033;-66
2023/10/31 10:14:46;;;;;;;690.95;619.88;;;30.40;99.90;;;;;;5043644;28;20036;-63
2023/10/31 10:17:26;;;;;;;668.50;599.55;;;30.50;99.90;;;;;;5032525;28;20068;-67
2023/10/31 10:20:13;;;;;;;679.05;608.40;;;30.40;99.90;;;;;;5032984;28;20043;-69
2023/10/31 10:22:42;;;;;;;672.55;604.05;;;30.40;99.90;;;;;;5030817;28;20041;-67
2023/10/31 10:25:16;;;;;;;796.33;715.05;;;30.40;99.90;;;;;;5032986;28;20540;-67
2023/10/31 10:27:47;;;;;;;803.72;722.67;;;30.40;99.90;;;;;;5032618;28;20025;-69
2023/10/31 10:30:16;;;;;;;907.83;816.70;;;30.40;99.90;;;;;;5043519;28;20098;-69
2023/10/31 10:32:42;;;;;;;864.53;777.60;;;30.40;99.90;;;;;;5072382;28;20028;-70
2023/10/31 10:35:11;;;;;;;708.08;631.90;;;30.40;99.90;;;;;;5064754;28;20048;-66
2023/10/31 10:37:39;;;;;;;669.30;565.17;;;30.40;99.90;;;;;;5072937;28;20037;-71
2023/10/31 10:40:07;;;;;;;620.17;545.45;;;30.30;99.90;;;;;;5072439;28;20028;-71
2023/10/31 10:42:56;;;;;;;550.55;491.48;;;30.30;99.90;;;;;;5059239;28;20029;-65
2023/10/31 10:45:24;;;;;;;557.30;498.77;;;30.30;99.90;;;;;;5052330;28;20040;-66
2023/10/31 10:47:55;;;;;;;560.72;502.13;;;30.30;99.90;;;;;;5052321;28;20409;-64
2023/10/31 10:50:29;;;;;;;522.80;467.67;;;30.40;99.90;;;;;;5052156;28;20115;-67
2023/10/31 10:53:10;;;;;;;463.42;413.65;;;30.30;99.90;;;;;;5051761;28;20029;-62
2023/10/31 10:55:44;;;;;;;470.05;418.92;;;30.30;99.90;;;;;;5050880;28;20502;-67
2023/10/31 10:58:33;;;;;;;511.75;457.67;;;30.30;99.90;;;;;;5039509;28;20033;-67
2023/10/31 11:01:00;;;;;;;561.00;502.58;;;30.30;99.90;;;;;;5032547;28;20026;-66
2023/10/31 11:03:28;;;;;;;856.85;769.40;;;30.30;99.90;;;;;;5048596;28;20056;-65
2023/10/31 11:05:55;;;;;;;637.97;571.20;;;30.30;99.90;;;;;;5052212;28;20474;-64
2023/10/31 11:08:25;;;;;;;912.90;821.25;;;30.20;99.90;;;;;;5052180;28;20036;-67
2023/10/31 11:10:54;;;;;;;557.88;498.48;;;30.30;99.90;;;;;;5052139;28;20029;-66
2023/10/31 11:13:22;;;;;;;554.30;487.80;;;30.20;99.90;;;;;;5052323;28;20433;-64
2023/10/31 11:15:54;;;;;;;582.60;518.50;;;30.20;99.90;;;;;;5052290;28;20029;-64
2023/10/31 11:18:22;;;;;;;654.33;583.40;;;30.20;99.90;;;;;;5052442;28;20058;-64
2023/10/31 11:20:49;;;;;;;619.38;554.22;;;30.10;99.90;;;;;;5050385;28;20213;-63
2023/10/31 11:23:15;;;;;;;685.05;610.20;;;30.10;99.90;;;;;;5034373;28;20049;-63
2023/10/31 11:25:44;;;;;;;644.10;576.53;;;30.10;99.90;;;;;;5032149;28;20767;-63
2023/10/31 11:28:14;;;;;;;584.03;523.25;;;30.10;99.90;;;;;;5033040;28;20033;-63
2023/10/31 11:30:43;;;;;;;657.00;588.92;;;30.10;99.90;;;;;;5046546;28;20437;-64
2023/10/31 11:33:29;;;;;;;602.80;539.50;;;30.10;99.90;;;;;;5032566;28;20029;-64
2023/10/31 11:36:05;;;;;;;557.88;498.17;;;30.00;99.90;;;;;;5033989;28;20022;-63
2023/10/31 11:38:36;;;;;;;563.92;501.70;;;30.00;99.90;;;;;;5036232;28;20033;-63
2023/10/31 11:41:05;;;;;;;531.23;459.80;;;30.00;99.90;;;;;;5036219;28;20025;-63
2023/10/31 11:43:52;;;;;;;539.42;463.08;;;30.00;99.90;;;;;;5042899;28;20033;-63
2023/10/31 11:46:25;;;;;;;574.25;461.38;;;30.00;99.90;;;;;;5056229;28;20540;-63
2023/10/31 11:48:53;;;;;;;544.58;457.13;;;29.90;99.90;;;;;;5056012;28;20055;-64
2023/10/31 11:51:20;;;;;;;475.80;421.88;;;29.90;99.90;;;;;;5055991;28;20029;-64
2023/10/31 11:53:50;;;;;;;511.52;453.95;;;29.80;99.90;;;;;;5055919;28;20452;-63
2023/10/31 11:56:17;;;;;;;513.92;458.05;;;29.80;99.90;;;;;;5055860;28;20029;-63
2023/10/31 11:58:44;;;;;;;533.10;476.52;;;29.80;99.90;;;;;;5055859;28;20024;-63
2023/10/31 12:01:11;;;;;;;488.83;436.90;;;29.80;99.90;;;;;;5055709;28;20021;-64
2023/10/31 12:03:40;;;;;;;497.08;442.25;;;29.80;99.90;;;;;;5055690;28;20044;-64
2023/10/31 12:06:08;;;;;;;511.00;455.50;;;29.80;99.90;;;;;;5055702;28;20025;-63
2023/10/31 12:08:38;;;;;;;500.35;446.05;;;29.80;99.90;;;;;;5055490;28;20017;-63
2023/10/31 12:11:07;;;;;;;574.72;498.50;;;29.70;99.90;;;;;;5055555;28;20096;-62